Jamestown, Texas
Current Conditions -  °F | °C
As of 5:35 PM on Monday 20 Oct 2014 (Local Time) from KJAS Reporting Station
Clear Clear  
Wind Chill: 76°   Ceiling: Unl
Heat Index: 76°   Visibility: 10mi
Dew Point: 51°   Wind: 5mph
Humidity: 42%   Direction: 50°NE
Pressure: 30.03"   Gusts: NA
Location:  31.0751°N, 93.8073°W
Report Text: KJAS 202235Z AUTO 05004KT 10SM CLR 24/11 A3003 RMK AO2 T02430105
Loading
Personal Weather Stations






























Interactive Weather Map
Tropical Storm Tracking
New forecast layout! Learn more

10-Day Weather Forecast

Advertisements
Track Severe Weather on mobile